JGG weather

Williamsburg Jamestown Airport
Williamsburg, Virginia, United States

Public forecast

Using degrees Fahrenheit for public forecast. Weather courtesy of forecast.io.

METAR (pilot weather report)

Retrieved 2019/06/19 08:35 UTC (0 seconds ago):

KJGG 190835Z AUTO 00000KT 10SM CLR 23/23 A2987 RMK AO1

TAF (pilot weather forecast)

Forecast is more than 12 hours old.

Closest forecast is Felker Army Air Field, 8.2 nm (15.2 km) SE. Retrieved 2019/06/18 18:15 UTC (14 hours ago):

TAF KFAF 181800Z 1818/1924 23010G15KT 9999 FEW090 SCT180 QNH2994INS TEMPO 1820/1823 22015G20KT 4800 -TSRA BKN040CB BECMG 1901/1902 19012KT 9999 FEW020 BKN070 QNH2987INS BECMG 1911/1912 19012KT 8000 -SHRA FEW015 BKN050 QNH2985INS BECMG 1917/1918 20010G15KT 6000 -SHRA FEW010 BKN030 QNH2982INS TEMPO 1919/1924 21012G18KT 3200 -TSRA BKN030CB TX31/1820Z TN23/1909Z LAST NO AMDS AFT 1903 NEXT 1910